Time;durP1;ratioP1;P1;durP2;ratioP2;P2;SDS_P1;SDS_P2;PMS_P1;PMS_P2;Temp;Humidity;BMP_temperature;BMP_pressure;BME280_temperature;BME280_humidity;BME280_pressure;Samples;Min_cycle;Max_cycle;Signal;HPM_P1;HPM_P2
2024/03/29 00:03:54;;;;;;;8.68;3.10;;;;;;;;;;10436913;28;20036;-61
2024/03/29 00:08:55;;;;;;;11.77;3.63;;;;;;;;;;10437315;28;20040;-62
2024/03/29 00:13:56;;;;;;;9.60;2.88;;;;;;;;;;10428039;28;20091;-61
2024/03/29 00:18:56;;;;;;;21.80;3.17;;;;;;;;;;10425393;28;20033;-61
2024/03/29 00:23:57;;;;;;;11.55;3.30;;;;;;;;;;10437926;28;20032;-61
2024/03/29 00:28:58;;;;;;;5.72;2.55;;;;;;;;;;10449606;28;20049;-62
2024/03/29 00:33:58;;;;;;;8.68;2.63;;;;;;;;;;10431097;28;20033;-62
2024/03/29 00:38:59;;;;;;;12.10;2.85;;;;;;;;;;10447487;28;20029;-62
2024/03/29 00:43:59;;;;;;;6.90;2.65;;;;;;;;;;10448802;28;20029;-61
2024/03/29 00:49:00;;;;;;;6.60;2.20;;;;;;;;;;10434205;28;20021;-62
2024/03/29 00:54:01;;;;;;;11.10;3.20;;;;;;;;;;10423314;28;20048;-61
2024/03/29 00:59:01;;;;;;;6.55;2.40;;;;;;;;;;10426029;28;20037;-61
2024/03/29 01:04:02;;;;;;;6.80;2.75;;;;;;;;;;10416209;28;20092;-62
2024/03/29 01:09:03;;;;;;;5.97;2.58;;;;;;;;;;10419467;28;20033;-62
2024/03/29 01:14:05;;;;;;;5.68;2.47;;;;;;;;;;10433708;28;20461;-61
2024/03/29 01:19:06;;;;;;;5.00;2.42;;;;;;;;;;10439273;28;20022;-61
2024/03/29 01:24:06;;;;;;;6.47;2.42;;;;;;;;;;10441394;28;20029;-61
2024/03/29 01:29:07;;;;;;;7.25;2.30;;;;;;;;;;10425260;28;20046;-61
2024/03/29 01:34:07;;;;;;;8.18;2.97;;;;;;;;;;10446541;28;20033;-61
2024/03/29 01:39:10;;;;;;;3.45;2.30;;;;;;;;;;10418546;28;20037;-61
2024/03/29 01:44:11;;;;;;;4.65;2.47;;;;;;;;;;10419847;28;20107;-60
2024/03/29 01:49:12;;;;;;;6.05;2.63;;;;;;;;;;10432378;28;20480;-60
2024/03/29 01:54:12;;;;;;;6.22;2.20;;;;;;;;;;10427553;28;20045;-61
2024/03/29 01:59:16;;;;;;;10.98;2.47;;;;;;;;;;10421515;28;20120;-62
2024/03/29 02:04:17;;;;;;;3.58;2.40;;;;;;;;;;10409008;28;20485;-61
2024/03/29 02:09:18;;;;;;;2.40;2.00;;;;;;;;;;10439665;28;20029;-61
2024/03/29 02:14:18;;;;;;;7.85;2.60;;;;;;;;;;10418567;28;20100;-61
2024/03/29 02:19:19;;;;;;;4.88;2.13;;;;;;;;;;10428854;28;20025;-61
2024/03/29 02:24:20;;;;;;;5.47;2.15;;;;;;;;;;10421265;28;20025;-61
2024/03/29 02:29:20;;;;;;;4.97;2.58;;;;;;;;;;10419083;28;20044;-61
2024/03/29 02:34:21;;;;;;;2.70;2.00;;;;;;;;;;10431092;28;20022;-61
2024/03/29 02:39:21;;;;;;;4.05;2.20;;;;;;;;;;10419192;28;20029;-61
2024/03/29 02:44:22;;;;;;;7.68;2.13;;;;;;;;;;10410957;28;20275;-61
2024/03/29 02:49:22;;;;;;;3.92;1.90;;;;;;;;;;10429716;28;20037;-61
2024/03/29 02:54:23;;;;;;;6.38;2.10;;;;;;;;;;10412909;28;20033;-61
2024/03/29 02:59:24;;;;;;;3.55;1.90;;;;;;;;;;10419592;28;20029;-61
2024/03/29 03:04:24;;;;;;;3.85;2.10;;;;;;;;;;10421728;28;20040;-61
2024/03/29 03:14:44;;;;;;;9.02;2.45;;;;;;;;;;10425696;28;20025;-60
2024/03/29 03:19:44;;;;;;;4.65;2.50;;;;;;;;;;10438750;28;20396;-60
2024/03/29 03:24:45;;;;;;;2.97;1.98;;;;;;;;;;10418630;28;20473;-60
2024/03/29 03:29:46;;;;;;;4.35;2.13;;;;;;;;;;10408677;28;20049;-61
2024/03/29 03:34:46;;;;;;;3.10;1.75;;;;;;;;;;10407471;28;20121;-61
2024/03/29 03:39:47;;;;;;;3.92;2.38;;;;;;;;;;10440463;28;20036;-60
2024/03/29 03:44:48;;;;;;;3.75;2.33;;;;;;;;;;10414423;28;20033;-61
2024/03/29 03:49:49;;;;;;;5.18;2.22;;;;;;;;;;10415628;28;20033;-61
2024/03/29 03:54:49;;;;;;;2.40;2.10;;;;;;;;;;10417161;28;20051;-61
2024/03/29 03:59:50;;;;;;;7.60;2.30;;;;;;;;;;10441340;28;20366;-61
2024/03/29 04:04:51;;;;;;;7.65;2.30;;;;;;;;;;10428391;28;20419;-60
2024/03/29 04:09:52;;;;;;;3.60;2.75;;;;;;;;;;10428683;28;20025;-60
2024/03/29 04:14:52;;;;;;;5.03;2.25;;;;;;;;;;10424672;28;20404;-60
2024/03/29 04:19:53;;;;;;;3.88;2.95;;;;;;;;;;10423700;28;20034;-61
2024/03/29 04:24:53;;;;;;;4.15;2.40;;;;;;;;;;10419593;28;20395;-61
2024/03/29 04:29:55;;;;;;;1.98;1.77;;;;;;;;;;10424218;28;20091;-60
2024/03/29 04:34:55;;;;;;;3.72;2.00;;;;;;;;;;10417290;28;20037;-60
2024/03/29 04:39:56;;;;;;;2.42;2.15;;;;;;;;;;10431240;28;20037;-60
2024/03/29 04:44:57;;;;;;;8.70;1.80;;;;;;;;;;10426684;28;20037;-61
2024/03/29 04:49:57;;;;;;;3.22;2.10;;;;;;;;;;10424363;28;20195;-61
2024/03/29 04:54:58;;;;;;;3.40;2.10;;;;;;;;;;10425147;28;20028;-62
2024/03/29 04:59:58;;;;;;;5.25;1.90;;;;;;;;;;10447921;28;20087;-61
2024/03/29 05:04:59;;;;;;;5.45;2.03;;;;;;;;;;10434262;28;20037;-61
2024/03/29 05:10:00;;;;;;;5.65;1.80;;;;;;;;;;10425423;28;20029;-61
2024/03/29 05:15:00;;;;;;;3.42;2.22;;;;;;;;;;10431523;28;20048;-61
2024/03/29 05:20:01;;;;;;;3.65;2.30;;;;;;;;;;10426131;28;20067;-61
2024/03/29 05:25:03;;;;;;;3.00;2.42;;;;;;;;;;10425715;28;20026;-61
2024/03/29 05:30:04;;;;;;;2.65;2.03;;;;;;;;;;10415175;28;20045;-61
2024/03/29 05:35:05;;;;;;;3.05;2.30;;;;;;;;;;10429689;28;20488;-62
2024/03/29 05:40:08;;;;;;;2.90;1.88;;;;;;;;;;10412407;28;20035;-61
2024/03/29 05:45:29;;;;;;;3.20;2.20;;;;;;;;;;10427136;28;20036;-62
2024/03/29 05:50:32;;;;;;;3.00;2.05;;;;;;;;;;10444217;28;20260;-62
2024/03/29 05:55:33;;;;;;;2.42;2.08;;;;;;;;;;10427394;28;20029;-62
2024/03/29 06:00:34;;;;;;;4.05;2.17;;;;;;;;;;10422306;28;20107;-61
2024/03/29 06:05:35;;;;;;;2.03;1.80;;;;;;;;;;10434951;28;20104;-61
2024/03/29 06:10:36;;;;;;;6.88;2.08;;;;;;;;;;10419027;28;20100;-61
2024/03/29 06:20:55;;;;;;;3.05;2.17;;;;;;;;;;10425207;28;20056;-60
2024/03/29 06:25:56;;;;;;;2.38;1.88;;;;;;;;;;10427078;28;20037;-61
2024/03/29 06:30:59;;;;;;;5.32;2.10;;;;;;;;;;10421762;28;20048;-60
2024/03/29 06:35:59;;;;;;;7.10;2.00;;;;;;;;;;10418760;28;20523;-61
2024/03/29 06:41:00;;;;;;;3.00;2.38;;;;;;;;;;10421883;28;20047;-61
2024/03/29 06:46:02;;;;;;;5.18;2.47;;;;;;;;;;10414292;28;20029;-60
2024/03/29 06:51:04;;;;;;;5.20;2.60;;;;;;;;;;10427660;28;20115;-60
2024/03/29 06:56:04;;;;;;;9.45;2.83;;;;;;;;;;10417411;28;20037;-59
2024/03/29 07:01:05;;;;;;;17.38;2.75;;;;;;;;;;10424351;28;20033;-60
2024/03/29 07:06:05;;;;;;;15.35;2.85;;;;;;;;;;10426388;28;20029;-59
2024/03/29 07:11:06;;;;;;;10.10;4.35;;;;;;;;;;10415613;28;20173;-60
2024/03/29 07:16:07;;;;;;;7.05;5.32;;;;;;;;;;10436308;28;20022;-60
2024/03/29 07:21:07;;;;;;;9.55;4.40;;;;;;;;;;10418674;28;20183;-60
2024/03/29 07:26:08;;;;;;;16.80;5.72;;;;;;;;;;10420500;28;20366;-60
2024/03/29 07:31:09;;;;;;;15.27;4.50;;;;;;;;;;10437582;28;20481;-60
2024/03/29 07:36:10;;;;;;;5.93;4.05;;;;;;;;;;10433976;28;20047;-60
2024/03/29 07:41:11;;;;;;;10.75;3.58;;;;;;;;;;10430336;28;20508;-60
2024/03/29 07:46:12;;;;;;;8.82;3.92;;;;;;;;;;10431605;28;20476;-60
2024/03/29 07:51:12;;;;;;;5.70;3.28;;;;;;;;;;10412228;28;20032;-60
2024/03/29 07:56:13;;;;;;;4.82;3.20;;;;;;;;;;10418016;28;20211;-60
2024/03/29 08:01:23;;;;;;;5.85;3.55;;;;;;;;;;10438975;28;20088;-60
2024/03/29 08:06:24;;;;;;;7.63;3.20;;;;;;;;;;10435278;28;20021;-60
2024/03/29 08:11:24;;;;;;;4.00;2.90;;;;;;;;;;10417313;28;20033;-60
2024/03/29 08:16:25;;;;;;;6.03;2.80;;;;;;;;;;10432476;28;20033;-60
2024/03/29 08:21:28;;;;;;;7.28;2.92;;;;;;;;;;10414437;28;20040;-60
2024/03/29 08:26:29;;;;;;;4.32;2.65;;;;;;;;;;10447351;28;20021;-60
2024/03/29 08:31:30;;;;;;;4.68;2.47;;;;;;;;;;10438104;28;20044;-60
2024/03/29 08:36:30;;;;;;;2.78;2.30;;;;;;;;;;10438126;28;20032;-60
2024/03/29 08:41:31;;;;;;;3.05;2.30;;;;;;;;;;10424648;28;20477;-60
2024/03/29 08:46:31;;;;;;;2.90;2.20;;;;;;;;;;10423781;28;20111;-60
2024/03/29 08:51:32;;;;;;;5.63;2.50;;;;;;;;;;10423935;28;20024;-60
2024/03/29 08:56:36;;;;;;;4.32;2.22;;;;;;;;;;10435610;28;20047;-60
2024/03/29 09:01:42;;;;;;;3.92;2.17;;;;;;;;;;10447292;28;20123;-60
2024/03/29 09:06:43;;;;;;;2.70;2.10;;;;;;;;;;10413374;28;20029;-60
2024/03/29 09:11:43;;;;;;;6.25;2.22;;;;;;;;;;10423598;28;20025;-60
2024/03/29 09:16:47;;;;;;;4.65;2.30;;;;;;;;;;10412471;28;20018;-60
2024/03/29 09:21:47;;;;;;;4.70;2.10;;;;;;;;;;10418000;28;20264;-60
2024/03/29 09:26:51;;;;;;;3.35;2.17;;;;;;;;;;10447241;28;20252;-60
2024/03/29 09:31:52;;;;;;;5.10;1.90;;;;;;;;;;10420844;28;20053;-60
2024/03/29 09:36:52;;;;;;;3.40;1.85;;;;;;;;;;10423901;28;20472;-60
2024/03/29 09:41:58;;;;;;;2.10;1.90;;;;;;;;;;10425309;28;20059;-60
2024/03/29 09:47:03;;;;;;;5.10;2.08;;;;;;;;;;10435498;28;20064;-60
2024/03/29 09:52:05;;;;;;;5.28;2.15;;;;;;;;;;10431976;28;20056;-60
2024/03/29 09:57:06;;;;;;;2.35;2.00;;;;;;;;;;10409503;28;20388;-60
2024/03/29 10:02:16;;;;;;;3.13;1.90;;;;;;;;;;10424103;28;20029;-60
2024/03/29 10:07:18;;;;;;;6.80;2.08;;;;;;;;;;10435483;28;20376;-60
2024/03/29 10:12:18;;;;;;;2.60;1.63;;;;;;;;;;10415054;28;20476;-60
2024/03/29 10:17:19;;;;;;;4.90;2.20;;;;;;;;;;10427193;28;20029;-60
2024/03/29 10:22:20;;;;;;;2.83;1.77;;;;;;;;;;10432525;28;20029;-60
2024/03/29 10:27:21;;;;;;;2.53;1.60;;;;;;;;;;10444082;28;20044;-60
2024/03/29 10:32:22;;;;;;;4.70;2.10;;;;;;;;;;10432258;28;20456;-60
2024/03/29 10:37:27;;;;;;;1.85;1.67;;;;;;;;;;10424928;28;20028;-60
2024/03/29 10:42:28;;;;;;;2.13;1.67;;;;;;;;;;10413986;28;20084;-60
2024/03/29 10:47:30;;;;;;;2.83;1.75;;;;;;;;;;10425278;28;20082;-60
2024/03/29 10:52:31;;;;;;;2.63;1.67;;;;;;;;;;10439614;28;20121;-60
2024/03/29 10:57:36;;;;;;;3.30;1.88;;;;;;;;;;10424077;28;20035;-60
2024/03/29 11:02:55;;;;;;;2.00;1.80;;;;;;;;;;10414163;28;20116;-60
2024/03/29 11:07:56;;;;;;;1.50;1.40;;;;;;;;;;10420540;28;20026;-60
2024/03/29 11:13:06;;;;;;;1.70;1.60;;;;;;;;;;10419785;28;20104;-60
2024/03/29 11:18:08;;;;;;;2.85;1.95;;;;;;;;;;10410243;28;20037;-60
2024/03/29 11:23:13;;;;;;;4.05;2.30;;;;;;;;;;10405450;28;20029;-60
2024/03/29 11:28:23;;;;;;;3.90;1.70;;;;;;;;;;10430637;28;20124;-60
2024/03/29 11:33:37;;;;;;;2.80;1.75;;;;;;;;;;10427371;28;20085;-60
2024/03/29 11:38:39;;;;;;;1.85;1.58;;;;;;;;;;10418680;28;20047;-60
2024/03/29 11:43:41;;;;;;;2.92;1.75;;;;;;;;;;10408325;28;21085;-60
2024/03/29 11:48:44;;;;;;;2.78;1.83;;;;;;;;;;10430900;28;20048;-60
2024/03/29 11:53:45;;;;;;;1.88;1.70;;;;;;;;;;10451100;28;20119;-60
2024/03/29 11:58:50;;;;;;;2.00;1.50;;;;;;;;;;10413664;28;20033;-60
2024/03/29 12:03:50;;;;;;;2.05;1.70;;;;;;;;;;10439450;28;20426;-60
2024/03/29 12:08:53;;;;;;;3.95;1.70;;;;;;;;;;10438446;28;20036;-60
2024/03/29 12:13:53;;;;;;;1.70;1.55;;;;;;;;;;10437757;28;20061;-60
2024/03/29 12:18:54;;;;;;;1.52;1.42;;;;;;;;;;10438324;28;20033;-60
2024/03/29 12:23:54;;;;;;;2.35;1.83;;;;;;;;;;10440465;28;20033;-60
2024/03/29 12:28:55;;;;;;;1.60;1.50;;;;;;;;;;10447600;28;20375;-60
2024/03/29 12:33:56;;;;;;;1.92;1.65;;;;;;;;;;10415965;28;20024;-60
2024/03/29 12:39:02;;;;;;;1.65;1.55;;;;;;;;;;10438551;28;20026;-60
2024/03/29 12:44:02;;;;;;;1.95;1.60;;;;;;;;;;10421526;28;20044;-60
2024/03/29 12:49:03;;;;;;;2.08;1.65;;;;;;;;;;10437511;28;20028;-60
2024/03/29 12:54:05;;;;;;;2.97;1.77;;;;;;;;;;10439682;28;20021;-60
2024/03/29 12:59:06;;;;;;;2.50;1.50;;;;;;;;;;10434848;28;20029;-60
2024/03/29 13:04:06;;;;;;;2.47;1.60;;;;;;;;;;10428044;28;20575;-60
2024/03/29 13:09:07;;;;;;;3.15;1.90;;;;;;;;;;10434765;28;20303;-60
2024/03/29 13:14:09;;;;;;;3.38;1.77;;;;;;;;;;10428153;28;20022;-60
2024/03/29 13:19:09;;;;;;;1.58;1.35;;;;;;;;;;10425296;28;20100;-60
2024/03/29 13:24:10;;;;;;;3.67;1.52;;;;;;;;;;10413834;28;20527;-60
2024/03/29 13:29:13;;;;;;;1.90;1.60;;;;;;;;;;10432482;28;20047;-60
2024/03/29 13:34:13;;;;;;;2.03;1.70;;;;;;;;;;10426060;28;20025;-60
2024/03/29 13:39:15;;;;;;;3.20;1.83;;;;;;;;;;10423306;28;20037;-60
2024/03/29 13:44:17;;;;;;;1.52;1.42;;;;;;;;;;10421947;28;20021;-60
2024/03/29 13:49:20;;;;;;;2.45;1.45;;;;;;;;;;10421632;28;20065;-60
2024/03/29 13:54:21;;;;;;;1.60;1.50;;;;;;;;;;10421021;28;20021;-60
2024/03/29 13:59:21;;;;;;;1.58;1.33;;;;;;;;;;10416403;28;20465;-60
2024/03/29 14:04:22;;;;;;;1.50;1.40;;;;;;;;;;10422674;28;20064;-60
2024/03/29 14:09:23;;;;;;;2.72;1.85;;;;;;;;;;10428011;28;20039;-60
2024/03/29 14:14:24;;;;;;;2.45;1.60;;;;;;;;;;10443468;28;20421;-60
2024/03/29 14:19:26;;;;;;;3.40;1.58;;;;;;;;;;10433876;28;20083;-60
2024/03/29 14:24:28;;;;;;;1.58;1.48;;;;;;;;;;10423391;28;20044;-60
2024/03/29 14:29:29;;;;;;;2.45;1.73;;;;;;;;;;10425776;28;20052;-60
2024/03/29 14:34:34;;;;;;;2.22;1.42;;;;;;;;;;10442758;28;20042;-60
2024/03/29 14:39:35;;;;;;;4.88;1.65;;;;;;;;;;10425660;28;20047;-60
2024/03/29 14:44:35;;;;;;;1.50;1.40;;;;;;;;;;10426781;28;20476;-60
2024/03/29 14:49:36;;;;;;;2.97;1.60;;;;;;;;;;10434887;28;20064;-60
2024/03/29 14:54:37;;;;;;;2.15;1.50;;;;;;;;;;10414302;28;20244;-60
2024/03/29 14:59:40;;;;;;;3.72;1.33;;;;;;;;;;10412959;28;20432;-60
2024/03/29 15:04:41;;;;;;;4.85;1.65;;;;;;;;;;10413504;28;20039;-60
2024/03/29 15:09:42;;;;;;;1.90;1.50;;;;;;;;;;10425255;28;20480;-60
2024/03/29 15:14:42;;;;;;;6.05;1.25;;;;;;;;;;10422980;28;20016;-60
2024/03/29 15:19:46;;;;;;;14.73;1.80;;;;;;;;;;10416907;28;20075;-60
2024/03/29 15:24:46;;;;;;;4.22;1.52;;;;;;;;;;10425908;28;20033;-60
2024/03/29 15:29:47;;;;;;;10.88;1.80;;;;;;;;;;10416161;28;20446;-60
2024/03/29 15:34:48;;;;;;;8.63;2.60;;;;;;;;;;10440083;28;20037;-60
2024/03/29 15:39:48;;;;;;;19.85;2.72;;;;;;;;;;10438078;28;20180;-60
2024/03/29 15:44:50;;;;;;;50.28;3.78;;;;;;;;;;10439242;28;20384;-60
2024/03/29 15:49:54;;;;;;;22.58;4.82;;;;;;;;;;10432580;28;20334;-61
2024/03/29 15:54:55;;;;;;;17.50;3.42;;;;;;;;;;10420746;28;20025;-61
2024/03/29 15:59:56;;;;;;;31.88;3.58;;;;;;;;;;10429403;28;20033;-61
2024/03/29 16:04:56;;;;;;;18.65;3.50;;;;;;;;;;10422508;28;20034;-61
2024/03/29 16:10:01;;;;;;;17.00;2.50;;;;;;;;;;10428033;28;20025;-61
2024/03/29 16:15:02;;;;;;;17.30;3.00;;;;;;;;;;10423289;28;20033;-61
2024/03/29 16:20:02;;;;;;;12.23;2.42;;;;;;;;;;10412704;28;20025;-61
2024/03/29 16:25:04;;;;;;;12.07;2.90;;;;;;;;;;10426246;28;20487;-61
2024/03/29 16:30:05;;;;;;;9.85;2.28;;;;;;;;;;10435025;28;20075;-61
2024/03/29 16:35:06;;;;;;;9.30;2.30;;;;;;;;;;10431497;28;20417;-61
2024/03/29 16:40:07;;;;;;;15.23;4.00;;;;;;;;;;10442218;28;20079;-61
2024/03/29 16:45:08;;;;;;;22.33;2.60;;;;;;;;;;10433107;28;20472;-61
2024/03/29 16:50:09;;;;;;;14.68;2.88;;;;;;;;;;10440720;28;20025;-61
2024/03/29 16:55:10;;;;;;;11.18;3.05;;;;;;;;;;10445393;28;20388;-61
2024/03/29 17:00:11;;;;;;;11.77;3.22;;;;;;;;;;10436704;28;20032;-61
2024/03/29 17:05:12;;;;;;;17.85;4.50;;;;;;;;;;10436955;28;20415;-61
2024/03/29 17:10:12;;;;;;;10.15;2.58;;;;;;;;;;10431127;28;20048;-61
2024/03/29 17:15:13;;;;;;;12.60;3.15;;;;;;;;;;10438889;28;20033;-61
2024/03/29 17:20:14;;;;;;;10.38;2.75;;;;;;;;;;10415872;28;20025;-61
2024/03/29 17:25:14;;;;;;;21.55;3.60;;;;;;;;;;10441731;28;20029;-61
2024/03/29 17:30:15;;;;;;;9.52;2.83;;;;;;;;;;10420269;28;20053;-61
2024/03/29 17:35:16;;;;;;;9.23;2.92;;;;;;;;;;10415830;28;20028;-61
2024/03/29 17:40:16;;;;;;;8.00;2.67;;;;;;;;;;10447259;28;20033;-61
2024/03/29 17:45:17;;;;;;;5.13;2.50;;;;;;;;;;10433535;28;20025;-61
2024/03/29 17:50:17;;;;;;;13.77;3.03;;;;;;;;;;10422282;28;20029;-61
2024/03/29 17:55:18;;;;;;;7.60;2.33;;;;;;;;;;10425400;28;20028;-61
2024/03/29 18:00:19;;;;;;;6.85;2.80;;;;;;;;;;10422964;28;20025;-61
2024/03/29 18:05:19;;;;;;;12.13;2.50;;;;;;;;;;10435215;28;20094;-61
2024/03/29 18:10:20;;;;;;;5.55;2.03;;;;;;;;;;10410707;28;20059;-61
2024/03/29 18:15:21;;;;;;;6.38;2.28;;;;;;;;;;10433843;28;20025;-61
2024/03/29 18:20:21;;;;;;;6.53;2.15;;;;;;;;;;10433111;28;20013;-61
2024/03/29 18:25:22;;;;;;;9.45;2.85;;;;;;;;;;10444169;28;20075;-61
2024/03/29 18:30:24;;;;;;;4.10;2.38;;;;;;;;;;10434417;28;20045;-61
2024/03/29 18:35:25;;;;;;;4.97;2.47;;;;;;;;;;10429792;28;20053;-61
2024/03/29 18:40:26;;;;;;;8.65;2.42;;;;;;;;;;10429851;28;20034;-61
2024/03/29 18:45:27;;;;;;;4.72;2.33;;;;;;;;;;10420901;28;20048;-61
2024/03/29 18:50:27;;;;;;;4.72;2.20;;;;;;;;;;10409361;28;20123;-61
2024/03/29 18:55:28;;;;;;;9.30;2.55;;;;;;;;;;10431373;28;20500;-61
2024/03/29 19:00:29;;;;;;;6.75;2.38;;;;;;;;;;10431587;28;20028;-61
2024/03/29 19:05:29;;;;;;;8.45;2.50;;;;;;;;;;10421890;28;20037;-61
2024/03/29 19:10:30;;;;;;;3.75;2.00;;;;;;;;;;10414175;28;20029;-61
2024/03/29 19:15:30;;;;;;;4.30;2.30;;;;;;;;;;10419213;28;20253;-61
2024/03/29 19:20:31;;;;;;;5.90;2.03;;;;;;;;;;10421959;28;20025;-62
2024/03/29 19:25:31;;;;;;;8.10;2.33;;;;;;;;;;10441208;28;20040;-61
2024/03/29 19:30:32;;;;;;;8.25;2.55;;;;;;;;;;10422348;28;20068;-61
2024/03/29 19:35:34;;;;;;;6.10;2.38;;;;;;;;;;10406436;28;20022;-61
2024/03/29 19:40:34;;;;;;;5.55;2.03;;;;;;;;;;10418602;28;20034;-61
2024/03/29 19:45:35;;;;;;;5.03;1.92;;;;;;;;;;10443606;28;20036;-61
2024/03/29 19:50:35;;;;;;;8.38;2.35;;;;;;;;;;10416881;28;20017;-61
2024/03/29 19:55:36;;;;;;;3.75;2.28;;;;;;;;;;10430314;28;20029;-61
2024/03/29 20:00:37;;;;;;;7.28;2.13;;;;;;;;;;10431736;28;20464;-61
2024/03/29 20:05:37;;;;;;;5.72;2.00;;;;;;;;;;10428563;28;20076;-61
2024/03/29 20:10:41;;;;;;;5.25;2.30;;;;;;;;;;10435439;28;20032;-61
2024/03/29 20:15:48;;;;;;;2.85;2.05;;;;;;;;;;10433004;28;20029;-61
2024/03/29 20:20:50;;;;;;;4.43;2.20;;;;;;;;;;10430813;28;20060;-61
2024/03/29 20:25:51;;;;;;;6.72;2.28;;;;;;;;;;10425176;28;20036;-61
2024/03/29 20:30:52;;;;;;;3.30;2.00;;;;;;;;;;10426354;28;20045;-61
2024/03/29 20:35:52;;;;;;;3.33;1.90;;;;;;;;;;10448981;28;20448;-61
2024/03/29 20:40:53;;;;;;;6.55;2.55;;;;;;;;;;10432716;28;20024;-61
2024/03/29 20:45:54;;;;;;;3.60;2.00;;;;;;;;;;10434397;28;20079;-61
2024/03/29 20:50:58;;;;;;;4.60;2.10;;;;;;;;;;10426777;28;20029;-61
2024/03/29 20:56:07;;;;;;;3.05;2.00;;;;;;;;;;10424597;28;20025;-61
2024/03/29 21:01:07;;;;;;;2.83;2.10;;;;;;;;;;10419061;28;20167;-61
2024/03/29 21:06:08;;;;;;;5.10;1.88;;;;;;;;;;10438648;28;20770;-62
2024/03/29 21:11:08;;;;;;;7.22;1.88;;;;;;;;;;10417872;28;20480;-62
2024/03/29 21:16:09;;;;;;;7.88;2.15;;;;;;;;;;10417619;28;20030;-61
2024/03/29 21:21:10;;;;;;;2.92;2.05;;;;;;;;;;10432445;28;20393;-61
2024/03/29 21:26:10;;;;;;;4.93;2.22;;;;;;;;;;10440030;28;20021;-61
2024/03/29 21:31:11;;;;;;;6.90;2.50;;;;;;;;;;10433353;28;20045;-61
2024/03/29 21:36:11;;;;;;;4.40;2.20;;;;;;;;;;10421975;28;20078;-61
2024/03/29 21:41:12;;;;;;;5.97;2.45;;;;;;;;;;10415602;28;20025;-61
2024/03/29 21:46:12;;;;;;;8.15;3.20;;;;;;;;;;10422908;28;20029;-61
2024/03/29 21:51:13;;;;;;;5.72;2.55;;;;;;;;;;10410768;28;20034;-61
2024/03/29 21:56:14;;;;;;;4.30;2.25;;;;;;;;;;10434753;28;20489;-61
2024/03/29 22:01:19;;;;;;;8.15;2.80;;;;;;;;;;10409342;28;20045;-61
2024/03/29 22:06:20;;;;;;;6.03;2.50;;;;;;;;;;10411198;28;20022;-61
2024/03/29 22:11:20;;;;;;;4.78;2.33;;;;;;;;;;10434728;28;20030;-61
2024/03/29 22:16:21;;;;;;;6.20;2.50;;;;;;;;;;10421597;28;20034;-61
2024/03/29 22:21:22;;;;;;;6.50;2.17;;;;;;;;;;10421650;28;20021;-60
2024/03/29 22:26:22;;;;;;;5.82;2.78;;;;;;;;;;10411442;28;20040;-61
2024/03/29 22:31:23;;;;;;;11.80;2.70;;;;;;;;;;10438568;28;20103;-61
2024/03/29 22:36:33;;;;;;;7.57;2.28;;;;;;;;;;10421726;28;20090;-61
2024/03/29 22:41:34;;;;;;;6.68;2.17;;;;;;;;;;10413864;28;20451;-61
2024/03/29 22:46:34;;;;;;;8.35;2.47;;;;;;;;;;10409785;28;20029;-61
2024/03/29 22:51:35;;;;;;;7.55;2.47;;;;;;;;;;10408578;28;20033;-61
2024/03/29 22:56:35;;;;;;;3.80;2.00;;;;;;;;;;10423240;28;20048;-61
2024/03/29 23:01:36;;;;;;;8.07;2.58;;;;;;;;;;10426737;28;20033;-60
2024/03/29 23:06:36;;;;;;;3.90;2.15;;;;;;;;;;10442182;28;20046;-60
2024/03/29 23:11:37;;;;;;;5.75;2.75;;;;;;;;;;10412948;28;20033;-60
2024/03/29 23:16:37;;;;;;;7.50;2.80;;;;;;;;;;10437595;28;20037;-60
2024/03/29 23:21:38;;;;;;;5.47;2.25;;;;;;;;;;10424274;28;20028;-61
2024/03/29 23:26:39;;;;;;;4.05;2.10;;;;;;;;;;10427833;28;20025;-61
2024/03/29 23:31:39;;;;;;;6.75;2.67;;;;;;;;;;10421662;28;20060;-60
2024/03/29 23:36:40;;;;;;;5.38;2.13;;;;;;;;;;10420223;28;20083;-61
2024/03/29 23:41:41;;;;;;;3.67;1.92;;;;;;;;;;10415509;28;20025;-61
2024/03/29 23:46:41;;;;;;;5.25;2.67;;;;;;;;;;10424083;28;20427;-61
2024/03/29 23:51:42;;;;;;;4.95;2.40;;;;;;;;;;10420044;28;20036;-60
2024/03/29 23:56:42;;;;;;;5.70;1.90;;;;;;;;;;10419510;28;20041;-61
